KGDJ

Details ICAO KGDJ
Name GRANBURY MUNI
Region United States
Timezone America/Chicago (UTC-5.0)
Plans Departing 0
Arriving 0
Stats Elevation 778 ft / 237 m (AMSL)
Location 32.444418° -97.816933°
Runways 1
Magnetic Variation 3.977° E
Sunrise 2017-03-24 12:30:39 UTC / 2017-03-24 07:30:39 Local
Sunset 2017-03-25 00:46:41 UTC / 2017-03-24 19:46:41 Local
Advertisement - Login to hide

Runways

ID Width Length Bearing (true) Bearing (mag) Surface Threshold Offset Overrun Length
14 60 ft / 18 m 3,610 ft / 1,100 m 149.78° 145.80° Asphalt 0 ft / 0 m 0 ft / 0 m
32 60 ft / 18 m 3,610 ft / 1,100 m 329.78° 325.80° Asphalt 0 ft / 0 m 0 ft / 0 m

Map

Weather

Temperature
Clouds and Precipitation
Forecast for 2017-03-24 12:00 UTC. Updated 37 minutes ago
Winds

METAR

KGDJ 240935Z AUTO 15011KT 10SM BKN085 20/14 A2988 RMK AO2 T02020140

TAF

Not found

Frequencies

Recorded 118.92 MHz AWOS 3
Unicom 123.00 MHz CTAF/UNICOM
Warning: Do not use this data for real-world aviation or navigation. No guarantee of current accuracy is given.